Terminal Aerodrome Forecast
Issued by NWS Green Bay, WI

Home | Current Version | Previous Version | Graphics & Text | Print | Product List | Glossary On
Versions: 1 2 3 4 5 6 7 8 9 10 11 12 13 14 15 16 17 18 19 20 21 22 23 24 25 26
000
FTUS43 KGRB 160535
TAFGRB
TAF
KGRB 160535Z 1606/1706 22004KT P6SM BKN250
      TEMPO 1611/1615 5SM BR
     FM161500 22003KT P6SM FEW120 BKN250
     FM162200 11005KT 3SM -SN BR SCT012 BKN020
     FM170100 09005KT 1 1/2SM -FZRASN SCT004 OVC008=

USA.gov is the U.S. government's official web portal to all federal, state and local government web resources and services.